Time;durP1;ratioP1;P1;durP2;ratioP2;P2;SDS_P1;SDS_P2;PMS_P1;PMS_P2;Temp;Humidity;BMP_temperature;BMP_pressure;BME280_temperature;BME280_humidity;BME280_pressure;Samples;Min_cycle;Max_cycle;Signal;HPM_P1;HPM_P2
2023/05/19 00:01:28;;;;;;;13.85;8.10;;;;;;;8.12;74.96;102557.38;5027319;28;20099;-70
2023/05/19 00:03:56;;;;;;;14.98;8.70;;;;;;;8.09;75.22;102553.88;5030005;28;20037;-70
2023/05/19 00:06:28;;;;;;;13.25;7.75;;;;;;;8.05;74.68;102553.09;5027605;28;20128;-71
2023/05/19 00:09:05;;;;;;;12.20;8.23;;;;;;;8.02;75.52;102549.59;5028971;28;20925;-71
2023/05/19 00:11:32;;;;;;;17.50;8.35;;;;;;;7.99;76.60;102549.72;5049070;28;20396;-70
2023/05/19 00:13:58;;;;;;;16.90;8.90;;;;;;;7.96;77.24;102548.00;5031062;28;20536;-70
2023/05/19 00:16:26;;;;;;;14.70;9.02;;;;;;;7.85;77.83;102542.06;5029142;28;20578;-70
2023/05/19 00:18:52;;;;;;;13.13;8.43;;;;;;;7.84;79.65;102543.00;5028657;28;20066;-70
2023/05/19 00:21:18;;;;;;;14.45;7.95;;;;;;;7.82;78.64;102545.75;5028476;28;20033;-70
2023/05/19 00:23:43;;;;;;;16.75;8.10;;;;;;;7.80;78.51;102539.50;5027931;28;20095;-70
2023/05/19 00:26:09;;;;;;;14.80;8.18;;;;;;;7.77;78.64;102536.00;5028379;28;20056;-70
2023/05/19 00:28:34;;;;;;;13.00;7.88;;;;;;;7.73;77.39;102527.09;5040393;28;20484;-70
2023/05/19 00:31:00;;;;;;;13.98;8.18;;;;;;;7.76;78.43;102531.53;5049217;28;20041;-70
2023/05/19 00:33:26;;;;;;;14.02;7.97;;;;;;;7.71;78.42;102523.56;5046694;28;20144;-69
2023/05/19 00:35:52;;;;;;;12.20;7.43;;;;;;;7.69;78.19;102522.69;5039295;28;20034;-70
2023/05/19 00:38:18;;;;;;;15.30;8.20;;;;;;;7.68;78.04;102524.53;5025865;28;20025;-70
2023/05/19 00:40:44;;;;;;;10.60;7.30;;;;;;;7.63;78.25;102510.25;5026045;28;20033;-70
2023/05/19 00:43:10;;;;;;;16.08;8.35;;;;;;;7.66;80.78;102517.41;5025968;28;20037;-70
2023/05/19 00:45:36;;;;;;;12.63;7.63;;;;;;;7.66;79.81;102515.59;5026258;28;20738;-71
2023/05/19 00:48:01;;;;;;;11.05;6.65;;;;;;;7.66;79.79;102523.72;5027510;28;20037;-70
2023/05/19 00:50:27;;;;;;;14.75;8.15;;;;;;;7.63;79.01;102515.69;5027779;28;20021;-70
2023/05/19 00:52:53;;;;;;;16.27;7.20;;;;;;;7.62;79.26;102513.03;5025699;28;20033;-69
2023/05/19 00:55:22;;;;;;;13.23;7.40;;;;;;;7.59;79.00;102513.13;5026525;28;20049;-69
2023/05/19 00:57:48;;;;;;;12.18;6.97;;;;;;;7.58;78.19;102514.06;5026153;28;20037;-69
2023/05/19 01:00:14;;;;;;;9.75;6.63;;;;;;;7.57;79.43;102518.59;5028133;28;20036;-69
2023/05/19 01:02:39;;;;;;;14.40;6.85;;;;;;;7.54;81.61;102523.22;5026645;28;20409;-69
2023/05/19 01:05:05;;;;;;;11.95;7.00;;;;;;;7.48;81.81;102527.03;5026166;28;20124;-69
2023/05/19 01:07:31;;;;;;;11.55;6.25;;;;;;;7.50;82.86;102527.84;5027467;28;20055;-69
2023/05/19 01:09:57;;;;;;;15.20;7.05;;;;;;;7.50;83.10;102521.53;5009568;28;20073;-69
2023/05/19 01:12:23;;;;;;;13.57;6.90;;;;;;;7.47;83.35;102511.72;5025532;28;20065;-69
2023/05/19 01:14:49;;;;;;;12.95;6.82;;;;;;;7.47;82.41;102524.38;5025008;28;20401;-69
2023/05/19 01:17:33;;;;;;;10.98;6.65;;;;;;;7.45;82.32;102521.69;5026283;28;20120;-69
2023/05/19 01:20:09;;;;;;;11.13;6.05;;;;;;;7.45;83.67;102520.81;5027368;28;20111;-69
2023/05/19 01:22:53;;;;;;;18.40;6.70;;;;;;;7.47;83.50;102514.44;5008884;28;20052;-69
2023/05/19 01:25:22;;;;;;;11.45;6.15;;;;;;;7.48;83.25;102518.91;5009024;28;20029;-69
2023/05/19 01:27:59;;;;;;;14.85;6.32;;;;;;;7.45;83.91;102521.69;5025482;28;20377;-69
2023/05/19 01:30:32;;;;;;;14.95;6.03;;;;;;;7.46;83.23;102515.38;5027515;28;20097;-69
2023/05/19 01:33:05;;;;;;;11.55;6.15;;;;;;;7.45;83.61;102520.81;5025997;28;20124;-69
2023/05/19 01:35:33;;;;;;;9.70;6.32;;;;;;;7.41;83.86;102512.81;5026709;28;20041;-70
2023/05/19 01:37:59;;;;;;;13.90;6.57;;;;;;;7.39;83.50;102514.66;5026477;28;20087;-69
2023/05/19 01:40:26;;;;;;;12.55;6.72;;;;;;;7.41;83.41;102520.00;5025225;28;20037;-69
2023/05/19 01:42:54;;;;;;;15.25;5.85;;;;;;;7.39;84.42;102519.19;5026200;28;20032;-69
2023/05/19 01:45:21;;;;;;;13.93;5.68;;;;;;;7.34;85.28;102511.22;5025919;28;20120;-70
2023/05/19 01:47:49;;;;;;;17.02;7.93;;;;;;;7.35;85.24;102509.41;5008910;28;20148;-69
2023/05/19 01:50:15;;;;;;;16.98;6.82;;;;;;;7.32;85.08;102510.41;5025554;28;20037;-70
2023/05/19 01:52:41;;;;;;;15.27;6.03;;;;;;;7.33;83.82;102512.16;5008409;28;20037;-70
2023/05/19 01:55:07;;;;;;;11.52;6.03;;;;;;;7.33;85.50;102504.03;5025163;28;20033;-70
2023/05/19 01:58:09;;;;;;;17.30;6.38;;;;;;;7.25;85.35;102492.56;5032830;28;20045;-70
2023/05/19 02:01:00;;;;;;;13.80;5.75;;;;;;;7.26;84.17;102504.28;5023179;28;20044;-70
2023/05/19 02:03:49;;;;;;;10.77;6.35;;;;;;;7.22;85.59;102498.06;5031845;28;20099;-70
2023/05/19 02:06:39;;;;;;;13.85;6.13;;;;;;;7.24;85.51;102500.75;5025276;28;20033;-70
2023/05/19 02:09:17;;;;;;;13.40;6.32;;;;;;;7.23;84.68;102501.66;5017353;28;20033;-70
2023/05/19 02:12:01;;;;;;;18.95;7.35;;;;;;;7.19;84.53;102500.00;5042066;28;20040;-70
2023/05/19 02:14:57;;;;;;;13.70;6.38;;;;;;;7.19;85.13;102503.59;5026511;28;20489;-70
2023/05/19 02:17:26;;;;;;;14.43;6.13;;;;;;;7.14;86.60;102501.03;5014469;28;20060;-70
2023/05/19 02:19:51;;;;;;;14.00;6.65;;;;;;;7.06;86.45;102492.25;5025232;28;20124;-70
2023/05/19 02:22:17;;;;;;;8.85;5.65;;;;;;;7.07;85.09;102493.16;5025114;28;20082;-70
2023/05/19 02:24:43;;;;;;;12.98;5.97;;;;;;;7.06;84.47;102499.50;5025010;28;20025;-70
2023/05/19 02:27:09;;;;;;;10.32;5.38;;;;;;;7.06;85.86;102496.78;5025048;28;20116;-70
2023/05/19 02:29:35;;;;;;;9.68;6.32;;;;;;;6.99;85.19;102490.66;5008756;28;20124;-70
2023/05/19 02:32:00;;;;;;;11.85;5.93;;;;;;;7.03;85.78;102492.34;5025833;28;20439;-70
2023/05/19 02:34:26;;;;;;;16.80;6.85;;;;;;;7.01;86.40;102494.22;5025935;28;20049;-70
2023/05/19 02:36:52;;;;;;;12.70;6.60;;;;;;;6.95;86.33;102480.91;5031570;28;20049;-70
2023/05/19 02:39:18;;;;;;;9.77;6.25;;;;;;;6.98;86.77;102482.63;5043187;28;20037;-70
2023/05/19 02:41:43;;;;;;;12.73;6.00;;;;;;;6.96;86.96;102487.19;5031609;28;20609;-70
2023/05/19 02:44:08;;;;;;;10.32;6.40;;;;;;;6.95;86.21;102493.53;5025664;28;20499;-70
2023/05/19 02:46:35;;;;;;;14.10;6.93;;;;;;;6.85;87.23;102483.00;5024354;28;20033;-70
2023/05/19 02:49:00;;;;;;;15.45;6.10;;;;;;;6.91;86.18;102487.34;5025510;28;20347;-70
2023/05/19 02:51:26;;;;;;;13.85;6.43;;;;;;;6.91;88.20;102495.47;5026355;28;20489;-70
2023/05/19 02:53:51;;;;;;;14.07;6.43;;;;;;;6.86;87.78;102487.47;5009411;28;20078;-70
2023/05/19 02:56:17;;;;;;;12.90;6.75;;;;;;;6.83;87.57;102489.38;5044328;28;20044;-70
2023/05/19 02:58:42;;;;;;;13.85;6.47;;;;;;;6.77;87.91;102482.34;5013470;28;20508;-70
2023/05/19 03:01:08;;;;;;;12.18;6.35;;;;;;;6.74;88.96;102477.03;5024393;28;20103;-70
2023/05/19 03:03:34;;;;;;;14.00;6.20;;;;;;;6.74;88.01;102477.03;5037631;28;20037;-70
2023/05/19 03:06:00;;;;;;;13.32;6.95;;;;;;;6.73;88.36;102477.06;5016580;28;20021;-70
2023/05/19 03:08:26;;;;;;;10.88;6.15;;;;;;;6.71;87.42;102478.94;5023649;28;20061;-70
2023/05/19 03:10:52;;;;;;;11.90;6.70;;;;;;;6.69;86.77;102481.69;5024454;28;20029;-70
2023/05/19 03:13:17;;;;;;;16.75;6.28;;;;;;;6.68;88.10;102471.81;5025388;28;20041;-70
2023/05/19 03:15:43;;;;;;;12.50;6.40;;;;;;;6.68;87.71;102481.75;5024767;28;20389;-70
2023/05/19 03:18:10;;;;;;;10.02;6.68;;;;;;;6.64;87.49;102478.22;5025625;28;20128;-70
2023/05/19 03:20:36;;;;;;;16.23;6.50;;;;;;;6.61;86.77;102478.31;5024129;28;20039;-70
2023/05/19 03:23:02;;;;;;;12.55;6.10;;;;;;;6.58;86.67;102476.59;5008140;28;20434;-69
2023/05/19 03:25:28;;;;;;;16.20;8.07;;;;;;;6.56;88.08;102481.16;5007423;28;20029;-70
2023/05/19 03:27:54;;;;;;;16.08;6.72;;;;;;;6.55;87.28;102487.50;5023840;28;20029;-71
2023/05/19 03:30:19;;;;;;;11.65;7.22;;;;;;;6.56;88.99;102483.84;5024348;28;20412;-71
2023/05/19 03:33:00;;;;;;;11.63;6.75;;;;;;;6.52;88.28;102479.47;5023952;28;20029;-70
2023/05/19 03:35:26;;;;;;;16.63;6.00;;;;;;;6.54;87.43;102491.16;5024013;28;20042;-70
2023/05/19 03:37:51;;;;;;;11.20;7.05;;;;;;;6.52;89.34;102498.41;5026665;28;20091;-70
2023/05/19 03:40:17;;;;;;;16.80;7.20;;;;;;;6.48;87.38;102490.41;5028914;28;20037;-70
2023/05/19 03:42:43;;;;;;;11.43;6.45;;;;;;;6.43;88.55;102492.38;5027422;28;20025;-70
2023/05/19 03:45:09;;;;;;;13.20;6.30;;;;;;;6.46;87.50;102495.00;5029586;28;20049;-70
2023/05/19 03:47:35;;;;;;;13.15;7.35;;;;;;;6.45;88.23;102494.13;5011990;28;20101;-70
2023/05/19 03:50:16;;;;;;;12.65;6.28;;;;;;;6.43;88.21;102495.97;5013298;28;20116;-70
2023/05/19 03:52:55;;;;;;;11.20;6.32;;;;;;;6.43;87.73;102501.38;5026951;28;20037;-70
2023/05/19 03:55:28;;;;;;;13.18;6.88;;;;;;;6.44;88.54;102500.47;5011491;28;20101;-70
2023/05/19 03:57:54;;;;;;;15.25;7.10;;;;;;;6.40;89.82;102493.38;5010926;28;20453;-70
2023/05/19 04:00:20;;;;;;;10.43;6.10;;;;;;;6.40;88.89;102496.06;5029081;28;20489;-70
2023/05/19 04:02:45;;;;;;;13.15;6.75;;;;;;;6.37;88.86;102490.72;5033437;28;20040;-71
2023/05/19 04:05:11;;;;;;;12.18;6.90;;;;;;;6.42;87.28;102493.31;5036307;28;20033;-70
2023/05/19 04:07:36;;;;;;;23.38;7.07;;;;;;;6.43;87.29;102495.06;5026324;28;20050;-70
2023/05/19 04:10:03;;;;;;;16.90;6.78;;;;;;;6.43;90.19;102497.78;5047423;28;20037;-71
2023/05/19 04:12:29;;;;;;;11.48;6.55;;;;;;;6.41;88.90;102488.84;5043446;28;20621;-71
2023/05/19 04:14:54;;;;;;;11.13;6.55;;;;;;;6.42;90.06;102493.31;5028898;28;20442;-71
2023/05/19 04:17:22;;;;;;;17.52;7.28;;;;;;;6.40;90.76;102487.97;5027925;28;20040;-71
2023/05/19 04:19:47;;;;;;;14.73;7.15;;;;;;;6.44;90.85;102492.34;5026984;28;20053;-71
2023/05/19 04:22:13;;;;;;;11.02;5.97;;;;;;;6.46;89.71;102492.28;5027219;28;20068;-71
2023/05/19 04:24:38;;;;;;;12.30;6.22;;;;;;;6.45;90.56;102495.94;5025625;28;20138;-70
2023/05/19 04:27:04;;;;;;;11.55;6.70;;;;;;;6.43;90.93;102492.38;5048024;28;20037;-70
2023/05/19 04:29:32;;;;;;;14.07;5.95;;;;;;;6.46;90.57;102497.69;5047136;28;20480;-70
2023/05/19 04:31:57;;;;;;;14.00;6.85;;;;;;;6.47;90.22;102494.94;5039132;28;20018;-70
2023/05/19 04:34:23;;;;;;;13.30;6.00;;;;;;;6.52;89.71;102495.69;5010010;28;20045;-70
2023/05/19 04:36:48;;;;;;;12.60;6.38;;;;;;;6.56;89.28;102497.38;5026661;28;20447;-70
2023/05/19 04:39:14;;;;;;;12.93;6.47;;;;;;;6.60;88.96;102498.19;5025674;28;20033;-70
2023/05/19 04:41:43;;;;;;;18.58;7.28;;;;;;;6.64;89.52;102494.47;5026692;28;20033;-70
2023/05/19 04:44:09;;;;;;;15.95;7.22;;;;;;;6.65;89.80;102497.09;5026384;28;20030;-70
2023/05/19 04:46:35;;;;;;;12.40;7.25;;;;;;;6.65;90.65;102490.81;5027078;28;20047;-70
2023/05/19 04:49:01;;;;;;;9.00;6.10;;;;;;;6.75;89.68;102497.72;5027114;28;20088;-70
2023/05/19 04:51:30;;;;;;;10.55;6.60;;;;;;;6.82;89.72;102502.03;5026447;28;20086;-71
2023/05/19 04:53:57;;;;;;;10.23;6.25;;;;;;;6.87;88.31;102501.88;5027174;28;20033;-71
2023/05/19 04:56:22;;;;;;;10.15;5.78;;;;;;;6.94;90.41;102506.16;5045932;28;20119;-70
2023/05/19 04:58:49;;;;;;;11.70;6.45;;;;;;;6.96;89.13;102496.19;5014999;28;20056;-70
2023/05/19 05:01:14;;;;;;;15.25;7.10;;;;;;;7.03;88.65;102495.06;5010179;28;20167;-70
2023/05/19 05:03:41;;;;;;;13.77;6.60;;;;;;;7.11;90.96;102497.53;5026027;28;20044;-70
2023/05/19 05:06:09;;;;;;;14.77;7.55;;;;;;;7.13;91.49;102499.28;5026139;28;20029;-71
2023/05/19 05:08:39;;;;;;;16.63;8.50;;;;;;;7.19;90.21;102495.47;5025939;28;20040;-70
2023/05/19 05:11:05;;;;;;;15.18;7.82;;;;;;;7.28;89.62;102499.72;5026365;28;20695;-71
2023/05/19 05:13:31;;;;;;;20.65;8.30;;;;;;;7.34;89.68;102497.69;5032716;28;20080;-71
2023/05/19 05:15:57;;;;;;;16.58;8.13;;;;;;;7.39;89.92;102501.13;5029730;28;20432;-70
2023/05/19 05:18:22;;;;;;;12.48;7.07;;;;;;;7.48;90.68;102497.22;5042525;28;20047;-71
2023/05/19 05:20:48;;;;;;;14.18;7.97;;;;;;;7.54;90.91;102504.25;5009752;28;20041;-71
2023/05/19 05:23:15;;;;;;;18.02;8.27;;;;;;;7.60;91.14;102504.06;5025530;28;20021;-71
2023/05/19 05:25:43;;;;;;;18.75;8.50;;;;;;;7.67;90.99;102508.34;5025578;28;20527;-71
2023/05/19 05:28:09;;;;;;;15.20;7.85;;;;;;;7.74;90.94;102509.91;5025872;28;20037;-70
2023/05/19 05:30:36;;;;;;;18.00;9.75;;;;;;;7.80;89.58;102504.28;5026155;28;20499;-71
2023/05/19 05:33:03;;;;;;;16.27;8.65;;;;;;;7.85;90.49;102512.25;5010218;28;20033;-71
2023/05/19 05:35:35;;;;;;;13.68;8.02;;;;;;;7.91;90.61;102510.19;5026177;28;20128;-71
2023/05/19 05:38:01;;;;;;;16.77;8.65;;;;;;;7.99;88.75;102520.78;5025713;28;20038;-71
2023/05/19 05:40:27;;;;;;;19.48;8.70;;;;;;;8.04;90.52;102510.66;5025600;28;20343;-71
2023/05/19 05:42:54;;;;;;;16.50;8.73;;;;;;;8.12;88.42;102518.53;5029138;28;20029;-70
2023/05/19 05:45:22;;;;;;;15.95;7.93;;;;;;;8.17;90.40;102508.41;5025828;28;20071;-71
2023/05/19 05:47:48;;;;;;;17.65;8.05;;;;;;;8.22;90.53;102510.97;5017893;28;20033;-71
2023/05/19 05:50:14;;;;;;;17.40;8.32;;;;;;;8.24;89.44;102503.66;5034744;28;20114;-70
2023/05/19 05:52:41;;;;;;;13.43;7.45;;;;;;;8.30;88.75;102508.84;5056017;28;20099;-70
2023/05/19 05:55:08;;;;;;;16.20;8.20;;;;;;;8.35;88.13;102510.47;5026366;28;20116;-71
2023/05/19 05:57:35;;;;;;;14.52;8.93;;;;;;;8.42;88.97;102506.59;5025660;28;20484;-70
2023/05/19 06:00:01;;;;;;;17.65;7.75;;;;;;;8.47;87.15;102506.44;5024774;28;20029;-70
2023/05/19 06:02:27;;;;;;;13.98;7.82;;;;;;;8.54;87.15;102508.00;5029769;28;20087;-69
2023/05/19 06:04:53;;;;;;;15.68;9.00;;;;;;;8.58;86.70;102496.09;5026594;28;20405;-70
2023/05/19 06:07:19;;;;;;;16.02;8.02;;;;;;;8.69;87.23;102510.13;5024996;28;20025;-70
2023/05/19 06:09:45;;;;;;;14.63;7.93;;;;;;;8.79;87.39;102512.50;5022784;28;20400;-70
2023/05/19 06:12:11;;;;;;;19.25;8.43;;;;;;;8.88;87.85;102518.44;5025266;28;20021;-70
2023/05/19 06:14:40;;;;;;;15.85;7.57;;;;;;;9.00;85.65;102518.91;5024624;28;20370;-70
2023/05/19 06:17:35;;;;;;;15.00;7.72;;;;;;;9.11;85.35;102509.41;5034118;28;20381;-70
2023/05/19 06:20:05;;;;;;;15.90;8.20;;;;;;;9.24;86.29;102512.53;5033426;28;20037;-70
2023/05/19 06:22:31;;;;;;;13.40;7.05;;;;;;;9.35;84.51;102520.22;5034190;28;20083;-70
2023/05/19 06:24:56;;;;;;;16.17;7.82;;;;;;;9.40;82.97;102516.38;5040461;28;20104;-70
2023/05/19 06:27:21;;;;;;;17.13;7.82;;;;;;;9.47;83.10;102513.44;5028574;28;20041;-70
2023/05/19 06:29:47;;;;;;;16.02;8.75;;;;;;;9.55;83.71;102516.69;5024774;28;20103;-70
2023/05/19 06:32:13;;;;;;;18.40;7.43;;;;;;;9.61;84.81;102517.34;5021456;28;20155;-70
2023/05/19 06:34:39;;;;;;;16.77;7.78;;;;;;;9.73;82.56;102524.09;5043938;28;20045;-69
2023/05/19 06:37:05;;;;;;;14.70;7.40;;;;;;;9.76;81.73;102504.94;5047137;28;20044;-69
2023/05/19 06:39:32;;;;;;;17.33;7.30;;;;;;;9.85;80.36;102523.56;5032296;28;20041;-69
2023/05/19 06:41:58;;;;;;;9.90;6.90;;;;;;;9.87;81.13;102512.63;5008230;28;20495;-70
2023/05/19 06:44:43;;;;;;;15.48;7.10;;;;;;;9.94;81.59;102520.47;5024989;28;20060;-70
2023/05/19 06:47:10;;;;;;;17.00;7.97;;;;;;;9.97;80.15;102520.31;5024658;28;20420;-70
2023/05/19 06:49:35;;;;;;;12.88;6.82;;;;;;;9.96;79.80;102517.66;5016843;28;20091;-69
2023/05/19 06:52:01;;;;;;;15.52;7.80;;;;;;;10.00;80.04;102510.28;5038437;28;20071;-69
2023/05/19 06:54:26;;;;;;;12.13;7.38;;;;;;;10.01;80.20;102512.91;5023878;28;20083;-69
2023/05/19 06:56:51;;;;;;;15.38;7.25;;;;;;;10.05;81.52;102508.22;5024220;28;20393;-69
2023/05/19 06:59:20;;;;;;;14.25;7.15;;;;;;;10.13;80.00;102512.38;5024129;28;20021;-69
2023/05/19 07:01:46;;;;;;;10.75;7.10;;;;;;;10.22;80.89;102511.09;5025126;28;20393;-69
2023/05/19 07:04:11;;;;;;;11.40;6.55;;;;;;;10.31;79.32;102515.28;5025408;28;20037;-70
2023/05/19 07:06:37;;;;;;;16.73;7.22;;;;;;;10.39;79.88;102516.69;5024909;28;20034;-69
2023/05/19 07:09:04;;;;;;;14.52;7.40;;;;;;;10.48;79.60;102512.66;5025671;28;20132;-69
2023/05/19 07:11:30;;;;;;;16.83;6.93;;;;;;;10.59;79.36;102509.50;5010102;28;20029;-70
2023/05/19 07:13:55;;;;;;;15.80;7.35;;;;;;;10.76;77.33;102523.19;5027758;28;20029;-69
2023/05/19 07:16:25;;;;;;;12.30;6.97;;;;;;;11.03;78.14;102510.13;5042055;28;20104;-69
2023/05/19 07:18:51;;;;;;;13.45;7.25;;;;;;;11.22;77.33;102512.84;5028390;28;20037;-69
2023/05/19 07:21:16;;;;;;;10.95;7.05;;;;;;;11.39;77.36;102510.19;5011477;28;20535;-69
2023/05/19 07:23:41;;;;;;;19.08;7.60;;;;;;;11.52;75.64;102510.47;5010809;28;20041;-69
2023/05/19 07:26:07;;;;;;;14.90;6.70;;;;;;;11.61;75.17;102514.53;5029575;28;20048;-69
2023/05/19 07:28:33;;;;;;;17.55;6.97;;;;;;;11.65;74.90;102511.59;5030105;28;20060;-69
2023/05/19 07:30:59;;;;;;;11.50;6.90;;;;;;;11.73;74.74;102506.63;5028389;28;20037;-70
2023/05/19 07:33:25;;;;;;;12.50;7.28;;;;;;;11.81;73.48;102511.72;5028117;28;20630;-69
2023/05/19 07:35:51;;;;;;;13.43;6.47;;;;;;;11.87;73.77;102513.28;5029297;28;20040;-69
2023/05/19 07:38:17;;;;;;;14.45;6.70;;;;;;;11.93;71.74;102518.41;5027438;28;20033;-69
2023/05/19 07:40:42;;;;;;;15.75;6.88;;;;;;;11.98;73.47;102514.50;5027285;28;20556;-69
2023/05/19 07:43:07;;;;;;;13.85;6.50;;;;;;;12.03;70.48;102510.63;5029080;28;20037;-69
2023/05/19 07:45:33;;;;;;;13.57;6.03;;;;;;;12.10;71.72;102510.25;5030127;28;20488;-69
2023/05/19 07:47:58;;;;;;;19.75;6.90;;;;;;;12.21;72.25;102509.66;5029492;28;20366;-69
2023/05/19 07:50:24;;;;;;;11.18;5.85;;;;;;;12.35;71.73;102496.16;5027806;28;20289;-69
2023/05/19 07:52:49;;;;;;;11.45;5.95;;;;;;;12.56;72.17;102499.59;5047533;28;20040;-69
2023/05/19 07:55:15;;;;;;;12.30;6.15;;;;;;;12.90;74.09;102498.63;5048831;28;20119;-69
2023/05/19 07:57:40;;;;;;;18.70;5.78;;;;;;;13.20;70.74;102497.88;5027873;28;20119;-69
2023/05/19 08:00:08;;;;;;;9.73;4.90;;;;;;;13.71;67.53;102502.19;5028982;28;20379;-69
2023/05/19 08:02:37;;;;;;;8.60;4.72;;;;;;;13.88;61.64;102503.91;5028630;28;20049;-69
2023/05/19 08:05:02;;;;;;;16.05;5.45;;;;;;;13.90;61.75;102496.50;5029563;28;20041;-69
2023/05/19 08:07:27;;;;;;;13.43;5.45;;;;;;;14.22;60.98;102501.88;5035965;28;20390;-69
2023/05/19 08:09:53;;;;;;;9.02;5.35;;;;;;;14.39;60.17;102503.56;5048392;28;20017;-69
2023/05/19 08:12:18;;;;;;;12.80;4.72;;;;;;;14.60;58.54;102499.53;5038348;28;20092;-69
2023/05/19 08:14:44;;;;;;;12.40;4.22;;;;;;;14.85;60.11;102492.50;5028367;28;20021;-69
2023/05/19 08:17:10;;;;;;;8.07;4.22;;;;;;;15.47;59.73;102485.63;5027635;28;20520;-69
2023/05/19 08:19:35;;;;;;;10.55;4.55;;;;;;;15.81;60.94;102483.41;5028274;28;20092;-69
2023/05/19 08:22:01;;;;;;;8.65;4.18;;;;;;;16.31;58.35;102481.72;5029053;28;20021;-69
2023/05/19 08:24:31;;;;;;;6.78;4.38;;;;;;;16.36;54.31;102476.78;5026947;28;20104;-69
2023/05/19 08:26:56;;;;;;;9.77;3.55;;;;;;;16.74;57.63;102479.59;5028558;28;20489;-69
2023/05/19 08:29:22;;;;;;;8.88;4.47;;;;;;;17.07;54.08;102476.22;5027906;28;20040;-68
2023/05/19 08:31:47;;;;;;;10.73;4.38;;;;;;;17.62;56.45;102479.44;5034627;28;20505;-69
2023/05/19 08:34:12;;;;;;;7.03;4.80;;;;;;;17.69;51.91;102471.59;5048251;28;20043;-68
2023/05/19 08:36:39;;;;;;;11.20;4.95;;;;;;;18.09;52.97;102467.56;5048217;28;20045;-69
2023/05/19 08:39:05;;;;;;;7.50;4.05;;;;;;;18.75;53.47;102451.28;5047882;28;20513;-70
2023/05/19 08:41:31;;;;;;;11.98;4.45;;;;;;;19.19;50.96;102451.38;5030804;28;20572;-69
2023/05/19 08:43:57;;;;;;;8.70;3.58;;;;;;;19.58;48.21;102458.16;5026653;28;20029;-68
2023/05/19 08:46:24;;;;;;;9.52;4.85;;;;;;;19.92;46.82;102450.69;5010738;28;20057;-68
2023/05/19 08:49:00;;;;;;;11.07;4.68;;;;;;;19.76;46.19;102459.38;5027746;28;20049;-68
2023/05/19 08:51:28;;;;;;;7.97;4.13;;;;;;;19.40;46.41;102455.09;5028020;28;20049;-69
2023/05/19 08:54:03;;;;;;;9.20;4.55;;;;;;;19.77;50.59;102443.69;5026492;28;20021;-68
2023/05/19 08:56:30;;;;;;;7.22;3.50;;;;;;;20.25;46.54;102440.44;5028062;28;20452;-68
2023/05/19 08:58:59;;;;;;;9.13;3.20;;;;;;;20.60;45.67;102440.97;5027308;28;20036;-69
2023/05/19 09:01:25;;;;;;;9.00;3.03;;;;;;;20.65;43.98;102435.03;5026912;28;20034;-69
2023/05/19 09:03:51;;;;;;;7.35;2.88;;;;;;;20.78;43.18;102443.97;5041260;28;20106;-68
2023/05/19 09:06:16;;;;;;;9.90;2.70;;;;;;;20.62;42.62;102435.31;5029436;28;20017;-69
2023/05/19 09:08:42;;;;;;;10.35;2.90;;;;;;;20.58;41.14;102436.59;5027137;28;20041;-69
2023/05/19 09:11:08;;;;;;;10.52;2.20;;;;;;;20.02;40.29;102436.94;5026366;28;20108;-69
2023/05/19 09:13:34;;;;;;;7.32;2.42;;;;;;;19.77;43.96;102424.34;5027754;28;20043;-68
2023/05/19 09:16:00;;;;;;;12.35;2.10;;;;;;;19.88;41.96;102424.31;5027597;28;20424;-69
2023/05/19 09:18:26;;;;;;;10.23;2.42;;;;;;;19.84;40.22;102432.00;5026223;28;20123;-68
2023/05/19 09:20:58;;;;;;;5.60;2.28;;;;;;;20.01;44.54;102418.63;5027085;28;20138;-69
2023/05/19 09:23:27;;;;;;;10.13;2.42;;;;;;;19.62;41.35;102429.31;5026936;28;20041;-68
2023/05/19 09:25:53;;;;;;;5.60;2.55;;;;;;;19.41;43.10;102433.91;5027554;28;20037;-68
2023/05/19 09:28:22;;;;;;;7.15;2.50;;;;;;;19.46;43.33;102415.94;5027345;28;20045;-68
2023/05/19 09:30:47;;;;;;;9.05;2.60;;;;;;;19.36;41.91;102418.59;5027499;28;20062;-68
2023/05/19 09:33:18;;;;;;;7.03;2.33;;;;;;;19.84;40.84;102406.25;5027303;28;20037;-69
2023/05/19 09:35:47;;;;;;;9.00;2.40;;;;;;;19.98;40.28;102405.94;5025216;28;20045;-68
2023/05/19 09:38:17;;;;;;;6.38;2.33;;;;;;;20.43;43.13;102411.16;5044992;28;20052;-68
2023/05/19 09:40:42;;;;;;;8.82;2.00;;;;;;;20.52;37.90;102410.38;5038269;28;20039;-68
2023/05/19 09:43:08;;;;;;;7.15;2.22;;;;;;;20.49;40.43;102409.78;5026008;28;20720;-69
2023/05/19 09:45:34;;;;;;;9.30;2.67;;;;;;;20.25;36.76;102408.16;5028105;28;20034;-68
2023/05/19 09:48:03;;;;;;;8.23;2.65;;;;;;;19.80;38.45;102415.81;5027344;28;20041;-68
2023/05/19 09:50:29;;;;;;;5.80;2.20;;;;;;;19.82;42.21;102414.69;5027351;28;20051;-68
2023/05/19 09:52:55;;;;;;;8.32;2.90;;;;;;;20.25;41.68;102407.28;5026229;28;20466;-69
2023/05/19 09:55:25;;;;;;;10.15;2.65;;;;;;;20.62;37.63;102410.44;5025722;28;20037;-69
2023/05/19 09:57:54;;;;;;;6.93;2.13;;;;;;;21.13;42.28;102415.84;5026698;28;20048;-69
2023/05/19 10:00:20;;;;;;;7.03;2.45;;;;;;;21.46;37.49;102405.44;5025386;28;20505;-69
2023/05/19 10:02:47;;;;;;;8.43;2.45;;;;;;;20.95;35.50;102412.00;5026800;28;20037;-68
2023/05/19 10:05:18;;;;;;;8.98;2.55;;;;;;;20.70;39.61;102406.94;5026185;28;20061;-69
2023/05/19 10:07:53;;;;;;;7.68;2.53;;;;;;;21.04;41.56;102411.16;5026427;28;20037;-69
2023/05/19 10:10:20;;;;;;;10.02;2.90;;;;;;;21.23;36.62;102402.03;5024985;28;20102;-69
2023/05/19 10:12:46;;;;;;;9.23;2.65;;;;;;;21.32;36.75;102400.34;5026252;28;20029;-69
2023/05/19 10:15:14;;;;;;;7.45;2.35;;;;;;;21.69;41.37;102394.09;5025082;28;20071;-68
2023/05/19 10:17:40;;;;;;;5.57;1.83;;;;;;;22.03;41.89;102395.38;5026898;28;20045;-68
2023/05/19 10:20:14;;;;;;;7.43;2.30;;;;;;;21.90;33.72;102400.34;5025388;28;20026;-69
2023/05/19 10:22:40;;;;;;;6.25;2.35;;;;;;;21.29;35.20;102404.22;5024498;28;20045;-68
2023/05/19 10:25:07;;;;;;;16.92;2.58;;;;;;;21.17;33.91;102402.59;5026323;28;20030;-69
2023/05/19 10:27:43;;;;;;;9.45;2.00;;;;;;;21.54;40.58;102400.06;5026145;28;20439;-68
2023/05/19 10:30:15;;;;;;;7.25;2.17;;;;;;;22.05;36.94;102403.53;5026571;28;20041;-69
2023/05/19 10:32:42;;;;;;;5.75;2.28;;;;;;;22.49;37.18;102393.69;5026291;28;20124;-68
2023/05/19 10:35:22;;;;;;;5.63;2.30;;;;;;;22.86;38.50;102393.66;5025788;28;20044;-68
2023/05/19 10:37:56;;;;;;;9.55;2.80;;;;;;;23.05;37.01;102384.38;5025389;28;20492;-68
2023/05/19 10:40:37;;;;;;;9.82;2.78;;;;;;;22.79;35.40;102386.97;5025663;28;20037;-67
2023/05/19 10:43:34;;;;;;;7.43;2.58;;;;;;;22.00;35.77;102380.91;5026363;28;20469;-69
2023/05/19 10:46:00;;;;;;;9.95;2.70;;;;;;;22.38;36.77;102383.66;5008907;28;20052;-69
2023/05/19 10:48:25;;;;;;;8.07;2.55;;;;;;;22.88;37.34;102377.72;5041484;28;20111;-68
2023/05/19 10:50:55;;;;;;;7.78;2.92;;;;;;;22.57;32.28;102384.56;5039226;28;20029;-68
2023/05/19 10:53:21;;;;;;;6.47;3.03;;;;;;;22.24;33.33;102386.00;5007777;28;20370;-68
2023/05/19 10:56:02;;;;;;;8.43;2.85;;;;;;;22.58;37.60;102370.56;5025959;28;20056;-68
2023/05/19 10:58:38;;;;;;;9.02;2.97;;;;;;;22.56;34.94;102380.94;5024721;28;20048;-68
2023/05/19 11:01:08;;;;;;;7.72;2.72;;;;;;;21.77;35.37;102375.69;5027031;28;20132;-68
2023/05/19 11:03:51;;;;;;;7.95;2.63;;;;;;;21.78;35.25;102359.97;5026486;28;20097;-68
2023/05/19 11:06:28;;;;;;;5.65;2.47;;;;;;;22.09;38.33;102369.81;5025067;28;20038;-68
2023/05/19 11:08:56;;;;;;;5.40;2.38;;;;;;;22.34;34.67;102367.47;5025115;28;20041;-68
2023/05/19 11:11:21;;;;;;;10.55;2.97;;;;;;;22.45;34.06;102367.25;5025568;28;20473;-68
2023/05/19 11:13:50;;;;;;;5.13;2.00;;;;;;;22.64;34.35;102361.63;5025555;28;20082;-68
2023/05/19 11:16:25;;;;;;;7.10;2.25;;;;;;;22.82;34.44;102360.81;5026264;28;20041;-69
2023/05/19 11:18:53;;;;;;;7.40;2.30;;;;;;;23.03;35.61;102360.56;5026429;28;20045;-69
2023/05/19 11:21:18;;;;;;;6.25;2.25;;;;;;;23.46;32.17;102361.75;5025951;28;20025;-68
2023/05/19 11:23:44;;;;;;;6.25;2.90;;;;;;;23.40;34.26;102377.13;5039935;28;20828;-68
2023/05/19 11:26:09;;;;;;;6.00;2.83;;;;;;;23.14;34.55;102365.91;5025908;28;20508;-69
2023/05/19 11:28:36;;;;;;;8.90;2.92;;;;;;;22.38;31.65;102374.44;5024434;28;20033;-69